ESNN/SDL METAR and TAF weather

Enter ICAO airport designator
Station Type Date Time Source
ESNN METAR 2020/09/26 12:20 UTC NOAA

ESNN 261220Z AUTO 30006KT 270V330 9999 RA OVC010/// 08/07 Q1012


Station Type Date Time Source
ESNN Decoded METAR 2020/09/26 12:20 UTC NOAA

Sundsvall-Harnosand Flygplats, Sweden (ESNN) 62-32N 017-27E 10M
Sep 26, 2020 - 08:20 AM EDT / 2020.09.26 1220 UTC
Wind: from the WNW (300 degrees) at 7 MPH (6 KT) (direction variable):0
Visibility: greater than 7 mile(s):0
Sky conditions: overcast
Weather: rain
Temperature: 46 F (8 C)
Dew Point: 44 F (7 C)
Relative Humidity: 93%
Pressure (altimeter): 29.88 in. Hg (1012 hPa)
ob: ESNN 261220Z AUTO 30006KT 270V330 9999 RA OVC010/// 08/07 Q1012
cycle: 12

Station Type Date Time Source
ESNN TAF 2016/05/29 09:33 UTC NOAA

TAF TAF ESNN 290830Z 2909/3018 07006KT 9999 SCT045
BECMG 2913/2915 14010KT

Example: see airport list